Aviation Digital Data Service (ADDS)

Output produced by METARs form (1116 UTC 21 April 2018)
found at http://aviationweather.gov/adds/metars/
 
KJXN 210530Z 2106/2206 VRB04KT P6SM SCT250 
     FM211600 23006KT P6SM BKN150